sensor_id;sensor_type;location;lat;lon;timestamp;P1;durP1;ratioP1;P2;durP2;ratioP2
64615;SDS011;51027;42.162;24.754;2022-11-15T00:00:04;32.17;;;15.20;;
64615;SDS011;51027;42.162;24.754;2022-11-15T00:02:30;33.33;;;16.77;;
64615;SDS011;51027;42.162;24.754;2022-11-15T00:04:56;32.83;;;15.43;;
64615;SDS011;51027;42.162;24.754;2022-11-15T00:07:21;34.20;;;15.45;;
64615;SDS011;51027;42.162;24.754;2022-11-15T00:09:46;33.55;;;15.82;;
64615;SDS011;51027;42.162;24.754;2022-11-15T00:12:12;32.85;;;15.93;;
64615;SDS011;51027;42.162;24.754;2022-11-15T00:14:40;33.67;;;15.63;;
64615;SDS011;51027;42.162;24.754;2022-11-15T00:17:06;29.40;;;14.20;;
64615;SDS011;51027;42.162;24.754;2022-11-15T00:19:32;35.78;;;15.10;;
64615;SDS011;51027;42.162;24.754;2022-11-15T00:21:58;35.85;;;15.38;;
64615;SDS011;51027;42.162;24.754;2022-11-15T00:24:23;33.75;;;16.05;;
64615;SDS011;51027;42.162;24.754;2022-11-15T00:26:49;31.42;;;15.43;;
64615;SDS011;51027;42.162;24.754;2022-11-15T00:29:14;30.00;;;15.55;;
64615;SDS011;51027;42.162;24.754;2022-11-15T00:31:40;33.80;;;15.73;;
64615;SDS011;51027;42.162;24.754;2022-11-15T00:34:05;35.22;;;14.65;;
64615;SDS011;51027;42.162;24.754;2022-11-15T00:36:32;35.95;;;15.88;;
64615;SDS011;51027;42.162;24.754;2022-11-15T00:38:58;35.70;;;16.90;;
64615;SDS011;51027;42.162;24.754;2022-11-15T00:41:23;32.47;;;15.40;;
64615;SDS011;51027;42.162;24.754;2022-11-15T00:43:49;35.35;;;15.88;;
64615;SDS011;51027;42.162;24.754;2022-11-15T00:46:14;35.33;;;14.98;;
64615;SDS011;51027;42.162;24.754;2022-11-15T00:48:40;32.88;;;15.35;;
64615;SDS011;51027;42.162;24.754;2022-11-15T00:51:06;34.35;;;15.45;;
64615;SDS011;51027;42.162;24.754;2022-11-15T00:53:31;31.35;;;14.00;;
64615;SDS011;51027;42.162;24.754;2022-11-15T00:55:57;30.02;;;14.10;;
64615;SDS011;51027;42.162;24.754;2022-11-15T00:58:22;34.10;;;14.93;;
64615;SDS011;51027;42.162;24.754;2022-11-15T01:00:48;31.25;;;14.45;;
64615;SDS011;51027;42.162;24.754;2022-11-15T01:03:13;32.55;;;15.65;;
64615;SDS011;51027;42.162;24.754;2022-11-15T01:05:40;29.65;;;14.80;;
64615;SDS011;51027;42.162;24.754;2022-11-15T01:08:05;36.40;;;15.18;;
64615;SDS011;51027;42.162;24.754;2022-11-15T01:10:31;30.50;;;15.98;;
64615;SDS011;51027;42.162;24.754;2022-11-15T01:12:57;34.00;;;16.75;;
64615;SDS011;51027;42.162;24.754;2022-11-15T01:15:22;29.17;;;13.82;;
64615;SDS011;51027;42.162;24.754;2022-11-15T01:17:47;31.05;;;14.15;;
64615;SDS011;51027;42.162;24.754;2022-11-15T01:20:13;33.00;;;14.02;;
64615;SDS011;51027;42.162;24.754;2022-11-15T01:22:39;32.15;;;14.35;;
64615;SDS011;51027;42.162;24.754;2022-11-15T01:25:04;29.33;;;14.55;;
64615;SDS011;51027;42.162;24.754;2022-11-15T01:27:30;30.08;;;14.38;;
64615;SDS011;51027;42.162;24.754;2022-11-15T01:29:55;30.88;;;13.50;;
64615;SDS011;51027;42.162;24.754;2022-11-15T01:32:21;34.10;;;14.93;;
64615;SDS011;51027;42.162;24.754;2022-11-15T01:34:46;36.03;;;14.48;;
64615;SDS011;51027;42.162;24.754;2022-11-15T01:37:12;31.40;;;13.88;;
64615;SDS011;51027;42.162;24.754;2022-11-15T01:39:37;33.05;;;15.57;;
64615;SDS011;51027;42.162;24.754;2022-11-15T01:42:09;29.55;;;14.93;;
64615;SDS011;51027;42.162;24.754;2022-11-15T01:44:39;30.85;;;14.60;;
64615;SDS011;51027;42.162;24.754;2022-11-15T01:47:11;32.55;;;14.15;;
64615;SDS011;51027;42.162;24.754;2022-11-15T01:49:48;33.13;;;16.02;;
64615;SDS011;51027;42.162;24.754;2022-11-15T01:52:22;35.00;;;14.53;;
64615;SDS011;51027;42.162;24.754;2022-11-15T01:54:50;29.58;;;15.18;;
64615;SDS011;51027;42.162;24.754;2022-11-15T01:57:19;33.83;;;15.55;;
64615;SDS011;51027;42.162;24.754;2022-11-15T01:59:45;30.60;;;13.65;;
64615;SDS011;51027;42.162;24.754;2022-11-15T02:02:11;34.83;;;15.68;;
64615;SDS011;51027;42.162;24.754;2022-11-15T02:04:41;30.25;;;14.30;;
64615;SDS011;51027;42.162;24.754;2022-11-15T02:07:08;31.23;;;14.68;;
64615;SDS011;51027;42.162;24.754;2022-11-15T02:09:36;30.55;;;13.90;;
64615;SDS011;51027;42.162;24.754;2022-11-15T02:12:03;34.20;;;14.80;;
64615;SDS011;51027;42.162;24.754;2022-11-15T02:14:29;28.80;;;13.73;;
64615;SDS011;51027;42.162;24.754;2022-11-15T02:23:11;33.95;;;15.75;;
64615;SDS011;51027;42.162;24.754;2022-11-15T02:25:57;30.27;;;12.77;;
64615;SDS011;51027;42.162;24.754;2022-11-15T02:31:45;27.67;;;13.35;;
64615;SDS011;51027;42.162;24.754;2022-11-15T02:34:25;29.40;;;13.50;;
64615;SDS011;51027;42.162;24.754;2022-11-15T02:37:03;29.50;;;13.25;;
64615;SDS011;51027;42.162;24.754;2022-11-15T02:39:41;27.83;;;13.07;;
64615;SDS011;51027;42.162;24.754;2022-11-15T02:42:32;28.40;;;13.52;;
64615;SDS011;51027;42.162;24.754;2022-11-15T02:45:21;31.45;;;14.40;;
64615;SDS011;51027;42.162;24.754;2022-11-15T02:47:52;31.65;;;14.88;;
64615;SDS011;51027;42.162;24.754;2022-11-15T02:50:23;27.85;;;13.15;;
64615;SDS011;51027;42.162;24.754;2022-11-15T02:52:51;30.77;;;14.07;;
64615;SDS011;51027;42.162;24.754;2022-11-15T02:58:02;30.17;;;13.60;;
64615;SDS011;51027;42.162;24.754;2022-11-15T03:00:34;31.23;;;15.07;;
64615;SDS011;51027;42.162;24.754;2022-11-15T03:03:10;27.73;;;12.70;;
64615;SDS011;51027;42.162;24.754;2022-11-15T03:05:56;31.73;;;14.57;;
64615;SDS011;51027;42.162;24.754;2022-11-15T03:11:39;30.88;;;15.23;;
64615;SDS011;51027;42.162;24.754;2022-11-15T03:14:23;35.70;;;16.30;;
64615;SDS011;51027;42.162;24.754;2022-11-15T03:19:43;31.88;;;15.38;;
64615;SDS011;51027;42.162;24.754;2022-11-15T03:22:13;31.67;;;15.18;;
64615;SDS011;51027;42.162;24.754;2022-11-15T03:24:43;32.42;;;14.70;;
64615;SDS011;51027;42.162;24.754;2022-11-15T03:27:12;34.40;;;14.70;;
64615;SDS011;51027;42.162;24.754;2022-11-15T03:29:45;29.52;;;13.40;;
64615;SDS011;51027;42.162;24.754;2022-11-15T03:32:16;30.48;;;13.82;;
64615;SDS011;51027;42.162;24.754;2022-11-15T03:35:00;30.15;;;13.25;;
64615;SDS011;51027;42.162;24.754;2022-11-15T03:37:37;33.38;;;14.88;;
64615;SDS011;51027;42.162;24.754;2022-11-15T03:40:09;31.88;;;14.45;;
64615;SDS011;51027;42.162;24.754;2022-11-15T03:42:46;30.88;;;15.13;;
64615;SDS011;51027;42.162;24.754;2022-11-15T03:45:23;33.25;;;14.00;;
64615;SDS011;51027;42.162;24.754;2022-11-15T03:48:02;34.05;;;14.68;;
64615;SDS011;51027;42.162;24.754;2022-11-15T03:50:34;31.67;;;14.90;;
64615;SDS011;51027;42.162;24.754;2022-11-15T03:53:00;30.02;;;13.98;;
64615;SDS011;51027;42.162;24.754;2022-11-15T03:55:26;31.08;;;15.10;;
64615;SDS011;51027;42.162;24.754;2022-11-15T03:57:53;29.65;;;13.30;;
64615;SDS011;51027;42.162;24.754;2022-11-15T04:00:22;28.08;;;12.75;;
64615;SDS011;51027;42.162;24.754;2022-11-15T04:02:48;31.23;;;14.88;;
64615;SDS011;51027;42.162;24.754;2022-11-15T04:05:13;26.20;;;13.70;;
64615;SDS011;51027;42.162;24.754;2022-11-15T04:07:38;30.20;;;13.85;;
64615;SDS011;51027;42.162;24.754;2022-11-15T04:10:04;33.83;;;13.43;;
64615;SDS011;51027;42.162;24.754;2022-11-15T04:12:33;29.35;;;13.68;;
64615;SDS011;51027;42.162;24.754;2022-11-15T04:15:04;28.35;;;14.88;;
64615;SDS011;51027;42.162;24.754;2022-11-15T04:17:33;30.58;;;14.20;;
64615;SDS011;51027;42.162;24.754;2022-11-15T04:22:56;31.50;;;13.35;;
64615;SDS011;51027;42.162;24.754;2022-11-15T04:25:42;31.13;;;13.60;;
64615;SDS011;51027;42.162;24.754;2022-11-15T04:28:09;31.25;;;14.65;;
64615;SDS011;51027;42.162;24.754;2022-11-15T04:30:35;29.13;;;13.00;;
64615;SDS011;51027;42.162;24.754;2022-11-15T04:33:00;32.50;;;14.20;;
64615;SDS011;51027;42.162;24.754;2022-11-15T04:35:26;29.60;;;13.77;;
64615;SDS011;51027;42.162;24.754;2022-11-15T04:37:51;33.03;;;14.95;;
64615;SDS011;51027;42.162;24.754;2022-11-15T04:40:17;33.05;;;13.43;;
64615;SDS011;51027;42.162;24.754;2022-11-15T04:42:43;33.95;;;15.20;;
64615;SDS011;51027;42.162;24.754;2022-11-15T04:45:09;25.63;;;13.02;;
64615;SDS011;51027;42.162;24.754;2022-11-15T04:47:37;30.20;;;13.13;;
64615;SDS011;51027;42.162;24.754;2022-11-15T04:50:03;33.00;;;14.75;;
64615;SDS011;51027;42.162;24.754;2022-11-15T04:52:29;29.45;;;13.90;;
64615;SDS011;51027;42.162;24.754;2022-11-15T04:54:54;32.17;;;13.75;;
64615;SDS011;51027;42.162;24.754;2022-11-15T04:57:19;32.13;;;13.32;;
64615;SDS011;51027;42.162;24.754;2022-11-15T04:59:45;31.50;;;14.07;;
64615;SDS011;51027;42.162;24.754;2022-11-15T05:02:11;31.98;;;14.65;;
64615;SDS011;51027;42.162;24.754;2022-11-15T05:04:36;26.88;;;12.77;;
64615;SDS011;51027;42.162;24.754;2022-11-15T05:07:02;32.13;;;14.15;;
64615;SDS011;51027;42.162;24.754;2022-11-15T05:09:29;33.15;;;14.23;;
64615;SDS011;51027;42.162;24.754;2022-11-15T05:11:54;31.65;;;14.10;;
64615;SDS011;51027;42.162;24.754;2022-11-15T05:14:20;33.25;;;13.80;;
64615;SDS011;51027;42.162;24.754;2022-11-15T05:16:45;32.42;;;14.90;;
64615;SDS011;51027;42.162;24.754;2022-11-15T05:19:11;34.65;;;15.05;;
64615;SDS011;51027;42.162;24.754;2022-11-15T05:21:37;32.28;;;15.82;;
64615;SDS011;51027;42.162;24.754;2022-11-15T05:24:03;30.05;;;14.80;;
64615;SDS011;51027;42.162;24.754;2022-11-15T05:26:28;28.88;;;14.10;;
64615;SDS011;51027;42.162;24.754;2022-11-15T05:28:54;33.72;;;15.65;;
64615;SDS011;51027;42.162;24.754;2022-11-15T05:31:21;29.92;;;13.82;;
64615;SDS011;51027;42.162;24.754;2022-11-15T05:33:50;32.00;;;13.45;;
64615;SDS011;51027;42.162;24.754;2022-11-15T05:38:54;32.42;;;14.82;;
64615;SDS011;51027;42.162;24.754;2022-11-15T05:41:21;32.53;;;15.02;;
64615;SDS011;51027;42.162;24.754;2022-11-15T05:43:54;34.28;;;16.50;;
64615;SDS011;51027;42.162;24.754;2022-11-15T05:46:20;33.65;;;16.38;;
64615;SDS011;51027;42.162;24.754;2022-11-15T05:48:46;33.53;;;16.50;;
64615;SDS011;51027;42.162;24.754;2022-11-15T05:51:16;38.33;;;17.08;;
64615;SDS011;51027;42.162;24.754;2022-11-15T05:53:45;41.22;;;20.05;;
64615;SDS011;51027;42.162;24.754;2022-11-15T05:56:11;42.15;;;19.48;;
64615;SDS011;51027;42.162;24.754;2022-11-15T05:58:37;39.08;;;20.33;;
64615;SDS011;51027;42.162;24.754;2022-11-15T06:01:03;41.22;;;22.42;;
64615;SDS011;51027;42.162;24.754;2022-11-15T06:03:29;38.95;;;20.70;;
64615;SDS011;51027;42.162;24.754;2022-11-15T06:05:55;39.92;;;19.08;;
64615;SDS011;51027;42.162;24.754;2022-11-15T06:08:21;36.03;;;20.33;;
64615;SDS011;51027;42.162;24.754;2022-11-15T06:10:47;37.05;;;17.90;;
64615;SDS011;51027;42.162;24.754;2022-11-15T06:13:12;32.50;;;14.68;;
64615;SDS011;51027;42.162;24.754;2022-11-15T06:15:37;33.97;;;15.70;;
64615;SDS011;51027;42.162;24.754;2022-11-15T06:18:03;31.80;;;14.68;;
64615;SDS011;51027;42.162;24.754;2022-11-15T06:20:29;32.15;;;14.25;;
64615;SDS011;51027;42.162;24.754;2022-11-15T06:22:58;27.83;;;13.05;;
64615;SDS011;51027;42.162;24.754;2022-11-15T06:25:24;26.05;;;12.23;;
64615;SDS011;51027;42.162;24.754;2022-11-15T06:27:51;29.98;;;13.23;;
64615;SDS011;51027;42.162;24.754;2022-11-15T06:30:20;30.10;;;12.90;;
64615;SDS011;51027;42.162;24.754;2022-11-15T06:32:47;27.85;;;12.88;;
64615;SDS011;51027;42.162;24.754;2022-11-15T06:35:15;30.13;;;13.55;;
64615;SDS011;51027;42.162;24.754;2022-11-15T06:37:41;27.77;;;13.30;;
64615;SDS011;51027;42.162;24.754;2022-11-15T06:40:07;28.45;;;12.45;;
64615;SDS011;51027;42.162;24.754;2022-11-15T06:42:34;30.92;;;12.65;;
64615;SDS011;51027;42.162;24.754;2022-11-15T06:44:59;26.25;;;11.68;;
64615;SDS011;51027;42.162;24.754;2022-11-15T06:47:25;29.30;;;12.35;;
64615;SDS011;51027;42.162;24.754;2022-11-15T06:49:50;25.02;;;12.63;;
64615;SDS011;51027;42.162;24.754;2022-11-15T06:52:16;27.90;;;11.90;;
64615;SDS011;51027;42.162;24.754;2022-11-15T06:54:44;26.02;;;11.45;;
64615;SDS011;51027;42.162;24.754;2022-11-15T06:57:09;28.70;;;12.90;;
64615;SDS011;51027;42.162;24.754;2022-11-15T06:59:35;26.60;;;12.15;;
64615;SDS011;51027;42.162;24.754;2022-11-15T07:02:00;29.42;;;12.45;;
64615;SDS011;51027;42.162;24.754;2022-11-15T07:04:26;23.73;;;11.43;;
64615;SDS011;51027;42.162;24.754;2022-11-15T07:06:51;24.55;;;11.93;;
64615;SDS011;51027;42.162;24.754;2022-11-15T07:09:17;27.67;;;11.52;;
64615;SDS011;51027;42.162;24.754;2022-11-15T07:11:42;27.63;;;11.02;;
64615;SDS011;51027;42.162;24.754;2022-11-15T07:14:08;27.35;;;13.07;;
64615;SDS011;51027;42.162;24.754;2022-11-15T07:16:33;26.63;;;12.55;;
64615;SDS011;51027;42.162;24.754;2022-11-15T07:19:01;28.08;;;12.32;;
64615;SDS011;51027;42.162;24.754;2022-11-15T07:21:26;26.65;;;11.88;;
64615;SDS011;51027;42.162;24.754;2022-11-15T07:23:51;27.05;;;11.80;;
64615;SDS011;51027;42.162;24.754;2022-11-15T07:26:17;28.75;;;12.98;;
64615;SDS011;51027;42.162;24.754;2022-11-15T07:28:42;29.38;;;13.32;;
64615;SDS011;51027;42.162;24.754;2022-11-15T07:31:08;27.02;;;12.95;;
64615;SDS011;51027;42.162;24.754;2022-11-15T07:33:34;25.50;;;12.63;;
64615;SDS011;51027;42.162;24.754;2022-11-15T07:36:03;28.02;;;12.75;;
64615;SDS011;51027;42.162;24.754;2022-11-15T07:38:30;25.63;;;12.07;;
64615;SDS011;51027;42.162;24.754;2022-11-15T07:40:57;30.48;;;12.85;;
64615;SDS011;51027;42.162;24.754;2022-11-15T07:43:26;26.67;;;11.75;;
64615;SDS011;51027;42.162;24.754;2022-11-15T07:45:52;29.73;;;12.10;;
64615;SDS011;51027;42.162;24.754;2022-11-15T07:48:18;24.88;;;11.40;;
64615;SDS011;51027;42.162;24.754;2022-11-15T07:50:44;28.60;;;12.13;;
64615;SDS011;51027;42.162;24.754;2022-11-15T07:53:10;28.38;;;12.32;;
64615;SDS011;51027;42.162;24.754;2022-11-15T07:55:36;27.15;;;11.95;;
64615;SDS011;51027;42.162;24.754;2022-11-15T07:58:06;27.73;;;11.93;;
64615;SDS011;51027;42.162;24.754;2022-11-15T08:00:33;27.23;;;12.50;;
64615;SDS011;51027;42.162;24.754;2022-11-15T08:03:07;24.40;;;10.95;;
64615;SDS011;51027;42.162;24.754;2022-11-15T08:05:37;30.67;;;12.63;;
64615;SDS011;51027;42.162;24.754;2022-11-15T08:08:04;25.23;;;12.65;;
64615;SDS011;51027;42.162;24.754;2022-11-15T08:10:30;25.83;;;11.07;;
64615;SDS011;51027;42.162;24.754;2022-11-15T08:12:56;26.50;;;11.38;;
64615;SDS011;51027;42.162;24.754;2022-11-15T08:15:26;25.75;;;10.00;;
64615;SDS011;51027;42.162;24.754;2022-11-15T08:17:56;26.45;;;11.80;;
64615;SDS011;51027;42.162;24.754;2022-11-15T08:20:23;26.30;;;9.95;;
64615;SDS011;51027;42.162;24.754;2022-11-15T08:22:55;29.55;;;11.85;;
64615;SDS011;51027;42.162;24.754;2022-11-15T08:25:25;26.13;;;10.95;;
64615;SDS011;51027;42.162;24.754;2022-11-15T08:27:55;24.98;;;11.23;;
64615;SDS011;51027;42.162;24.754;2022-11-15T08:30:22;26.50;;;11.15;;
64615;SDS011;51027;42.162;24.754;2022-11-15T08:32:49;25.20;;;11.73;;
64615;SDS011;51027;42.162;24.754;2022-11-15T08:35:15;24.73;;;10.85;;
64615;SDS011;51027;42.162;24.754;2022-11-15T08:37:41;24.67;;;11.27;;
64615;SDS011;51027;42.162;24.754;2022-11-15T08:40:07;25.33;;;11.23;;
64615;SDS011;51027;42.162;24.754;2022-11-15T08:42:32;24.75;;;12.00;;
64615;SDS011;51027;42.162;24.754;2022-11-15T08:44:58;26.95;;;12.50;;
64615;SDS011;51027;42.162;24.754;2022-11-15T08:47:24;32.58;;;13.32;;
64615;SDS011;51027;42.162;24.754;2022-11-15T08:49:49;26.88;;;11.75;;
64615;SDS011;51027;42.162;24.754;2022-11-15T08:52:15;28.05;;;12.77;;
64615;SDS011;51027;42.162;24.754;2022-11-15T08:54:41;25.67;;;12.38;;
64615;SDS011;51027;42.162;24.754;2022-11-15T08:57:06;31.77;;;12.65;;
64615;SDS011;51027;42.162;24.754;2022-11-15T08:59:32;29.77;;;13.88;;
64615;SDS011;51027;42.162;24.754;2022-11-15T09:01:57;32.47;;;15.65;;
64615;SDS011;51027;42.162;24.754;2022-11-15T09:04:22;33.88;;;14.95;;
64615;SDS011;51027;42.162;24.754;2022-11-15T09:06:48;31.52;;;13.80;;
64615;SDS011;51027;42.162;24.754;2022-11-15T09:09:14;31.42;;;14.02;;
64615;SDS011;51027;42.162;24.754;2022-11-15T09:11:39;31.13;;;14.52;;
64615;SDS011;51027;42.162;24.754;2022-11-15T09:14:09;30.75;;;13.57;;
64615;SDS011;51027;42.162;24.754;2022-11-15T09:16:36;31.70;;;14.52;;
64615;SDS011;51027;42.162;24.754;2022-11-15T09:19:01;30.17;;;14.65;;
64615;SDS011;51027;42.162;24.754;2022-11-15T09:21:28;32.50;;;15.10;;
64615;SDS011;51027;42.162;24.754;2022-11-15T09:23:54;31.92;;;15.20;;
64615;SDS011;51027;42.162;24.754;2022-11-15T09:26:21;31.67;;;15.38;;
64615;SDS011;51027;42.162;24.754;2022-11-15T09:28:47;32.47;;;15.38;;
64615;SDS011;51027;42.162;24.754;2022-11-15T09:31:12;31.02;;;14.98;;
64615;SDS011;51027;42.162;24.754;2022-11-15T09:33:38;33.28;;;15.57;;
64615;SDS011;51027;42.162;24.754;2022-11-15T09:36:04;31.80;;;14.77;;
64615;SDS011;51027;42.162;24.754;2022-11-15T09:38:32;29.75;;;13.13;;
64615;SDS011;51027;42.162;24.754;2022-11-15T09:49:17;30.83;;;14.00;;
64615;SDS011;51027;42.162;24.754;2022-11-15T09:51:44;29.90;;;14.52;;
64615;SDS011;51027;42.162;24.754;2022-11-15T09:57:04;29.48;;;14.88;;
64615;SDS011;51027;42.162;24.754;2022-11-15T09:59:54;27.45;;;13.73;;
64615;SDS011;51027;42.162;24.754;2022-11-15T10:05:04;31.23;;;13.65;;
64615;SDS011;51027;42.162;24.754;2022-11-15T10:10:40;30.23;;;13.57;;
64615;SDS011;51027;42.162;24.754;2022-11-15T10:13:22;28.80;;;14.32;;
64615;SDS011;51027;42.162;24.754;2022-11-15T10:15:49;28.73;;;14.38;;
64615;SDS011;51027;42.162;24.754;2022-11-15T10:18:35;29.33;;;14.13;;
64615;SDS011;51027;42.162;24.754;2022-11-15T10:21:17;31.42;;;14.25;;
64615;SDS011;51027;42.162;24.754;2022-11-15T10:23:48;29.77;;;13.82;;
64615;SDS011;51027;42.162;24.754;2022-11-15T10:26:15;30.70;;;14.25;;
64615;SDS011;51027;42.162;24.754;2022-11-15T10:28:41;27.92;;;14.40;;
64615;SDS011;51027;42.162;24.754;2022-11-15T10:31:24;29.13;;;13.82;;
64615;SDS011;51027;42.162;24.754;2022-11-15T10:34:03;29.45;;;14.15;;
64615;SDS011;51027;42.162;24.754;2022-11-15T10:36:37;25.95;;;12.75;;
64615;SDS011;51027;42.162;24.754;2022-11-15T10:39:03;32.40;;;14.95;;
64615;SDS011;51027;42.162;24.754;2022-11-15T10:44:08;29.13;;;13.45;;
64615;SDS011;51027;42.162;24.754;2022-11-15T10:46:40;30.73;;;14.63;;
64615;SDS011;51027;42.162;24.754;2022-11-15T10:49:27;28.70;;;13.88;;
64615;SDS011;51027;42.162;24.754;2022-11-15T10:56:59;27.77;;;13.15;;
64615;SDS011;51027;42.162;24.754;2022-11-15T10:59:30;26.63;;;13.30;;
64615;SDS011;51027;42.162;24.754;2022-11-15T11:01:58;30.70;;;15.90;;
64615;SDS011;51027;42.162;24.754;2022-11-15T11:04:25;28.92;;;14.52;;
64615;SDS011;51027;42.162;24.754;2022-11-15T11:06:54;28.30;;;13.57;;
64615;SDS011;51027;42.162;24.754;2022-11-15T11:09:43;29.88;;;13.90;;
64615;SDS011;51027;42.162;24.754;2022-11-15T11:12:10;30.75;;;15.23;;
64615;SDS011;51027;42.162;24.754;2022-11-15T11:14:37;31.25;;;15.50;;
64615;SDS011;51027;42.162;24.754;2022-11-15T11:36:49;29.13;;;13.55;;
64615;SDS011;51027;42.162;24.754;2022-11-15T11:45:55;30.73;;;15.25;;
64615;SDS011;51027;42.162;24.754;2022-11-15T11:50:50;28.55;;;12.85;;
64615;SDS011;51027;42.162;24.754;2022-11-15T11:53:32;30.13;;;14.00;;
64615;SDS011;51027;42.162;24.754;2022-11-15T11:56:14;34.33;;;15.80;;
64615;SDS011;51027;42.162;24.754;2022-11-15T11:58:44;30.40;;;15.05;;
64615;SDS011;51027;42.162;24.754;2022-11-15T12:01:20;29.15;;;14.73;;
64615;SDS011;51027;42.162;24.754;2022-11-15T12:11:55;29.45;;;14.95;;
64615;SDS011;51027;42.162;24.754;2022-11-15T12:14:32;29.75;;;13.68;;
64615;SDS011;51027;42.162;24.754;2022-11-15T12:17:08;27.63;;;13.90;;
64615;SDS011;51027;42.162;24.754;2022-11-15T12:19:35;27.47;;;13.97;;
64615;SDS011;51027;42.162;24.754;2022-11-15T12:25:03;31.90;;;15.63;;
64615;SDS011;51027;42.162;24.754;2022-11-15T12:30:16;32.05;;;15.55;;
64615;SDS011;51027;42.162;24.754;2022-11-15T12:32:51;28.48;;;14.93;;
64615;SDS011;51027;42.162;24.754;2022-11-15T12:35:27;30.70;;;17.17;;
64615;SDS011;51027;42.162;24.754;2022-11-15T12:38:00;31.73;;;14.95;;
64615;SDS011;51027;42.162;24.754;2022-11-15T12:40:26;30.60;;;14.77;;
64615;SDS011;51027;42.162;24.754;2022-11-15T12:45:38;28.67;;;14.65;;
64615;SDS011;51027;42.162;24.754;2022-11-15T13:06:56;28.90;;;14.13;;
64615;SDS011;51027;42.162;24.754;2022-11-15T13:11:55;29.98;;;15.27;;
64615;SDS011;51027;42.162;24.754;2022-11-15T13:14:37;28.52;;;13.05;;
64615;SDS011;51027;42.162;24.754;2022-11-15T13:17:22;30.17;;;14.75;;
64615;SDS011;51027;42.162;24.754;2022-11-15T13:22:32;31.02;;;14.75;;
64615;SDS011;51027;42.162;24.754;2022-11-15T13:30:35;28.23;;;14.40;;
64615;SDS011;51027;42.162;24.754;2022-11-15T13:33:09;31.35;;;14.80;;
64615;SDS011;51027;42.162;24.754;2022-11-15T13:35:40;31.65;;;14.40;;
64615;SDS011;51027;42.162;24.754;2022-11-15T13:38:11;33.30;;;16.23;;
64615;SDS011;51027;42.162;24.754;2022-11-15T13:40:44;32.83;;;16.25;;
64615;SDS011;51027;42.162;24.754;2022-11-15T13:48:31;34.42;;;17.38;;
64615;SDS011;51027;42.162;24.754;2022-11-15T13:50:58;31.75;;;15.32;;
64615;SDS011;51027;42.162;24.754;2022-11-15T13:53:25;32.97;;;16.00;;
64615;SDS011;51027;42.162;24.754;2022-11-15T13:55:51;33.17;;;15.98;;
64615;SDS011;51027;42.162;24.754;2022-11-15T13:58:19;36.97;;;17.10;;
64615;SDS011;51027;42.162;24.754;2022-11-15T14:00:44;33.08;;;17.58;;
64615;SDS011;51027;42.162;24.754;2022-11-15T14:05:44;33.55;;;17.48;;
64615;SDS011;51027;42.162;24.754;2022-11-15T14:08:31;37.25;;;16.50;;
64615;SDS011;51027;42.162;24.754;2022-11-15T14:11:16;34.08;;;17.48;;
64615;SDS011;51027;42.162;24.754;2022-11-15T14:14:30;36.10;;;17.25;;
64615;SDS011;51027;42.162;24.754;2022-11-15T14:16:34;35.17;;;17.63;;
64615;SDS011;51027;42.162;24.754;2022-11-15T14:19:02;37.55;;;19.48;;
64615;SDS011;51027;42.162;24.754;2022-11-15T14:21:29;35.83;;;18.55;;
64615;SDS011;51027;42.162;24.754;2022-11-15T14:26:42;38.25;;;18.58;;
64615;SDS011;51027;42.162;24.754;2022-11-15T14:29:24;39.42;;;20.27;;
64615;SDS011;51027;42.162;24.754;2022-11-15T14:31:51;37.97;;;19.20;;
64615;SDS011;51027;42.162;24.754;2022-11-15T14:34:36;42.17;;;19.88;;
64615;SDS011;51027;42.162;24.754;2022-11-15T14:37:02;44.78;;;22.02;;
64615;SDS011;51027;42.162;24.754;2022-11-15T14:39:27;41.50;;;20.17;;
64615;SDS011;51027;42.162;24.754;2022-11-15T14:41:53;40.17;;;19.92;;
64615;SDS011;51027;42.162;24.754;2022-11-15T14:44:18;42.45;;;20.00;;
64615;SDS011;51027;42.162;24.754;2022-11-15T14:46:45;36.35;;;18.50;;
64615;SDS011;51027;42.162;24.754;2022-11-15T14:49:11;40.30;;;18.33;;
64615;SDS011;51027;42.162;24.754;2022-11-15T14:51:38;39.38;;;18.77;;
64615;SDS011;51027;42.162;24.754;2022-11-15T14:54:03;39.28;;;19.25;;
64615;SDS011;51027;42.162;24.754;2022-11-15T14:56:29;37.33;;;17.90;;
64615;SDS011;51027;42.162;24.754;2022-11-15T14:58:54;35.75;;;18.45;;
64615;SDS011;51027;42.162;24.754;2022-11-15T15:01:21;39.40;;;20.65;;
64615;SDS011;51027;42.162;24.754;2022-11-15T15:03:49;42.13;;;20.88;;
64615;SDS011;51027;42.162;24.754;2022-11-15T15:06:17;41.72;;;21.35;;
64615;SDS011;51027;42.162;24.754;2022-11-15T15:08:43;46.42;;;21.73;;
64615;SDS011;51027;42.162;24.754;2022-11-15T15:11:10;46.00;;;24.10;;
64615;SDS011;51027;42.162;24.754;2022-11-15T15:13:39;46.88;;;23.15;;
64615;SDS011;51027;42.162;24.754;2022-11-15T15:16:05;47.88;;;26.60;;
64615;SDS011;51027;42.162;24.754;2022-11-15T15:18:30;54.22;;;27.75;;
64615;SDS011;51027;42.162;24.754;2022-11-15T15:20:56;47.10;;;26.17;;
64615;SDS011;51027;42.162;24.754;2022-11-15T15:23:27;46.65;;;24.00;;
64615;SDS011;51027;42.162;24.754;2022-11-15T15:25:55;49.17;;;24.35;;
64615;SDS011;51027;42.162;24.754;2022-11-15T15:28:21;47.90;;;24.30;;
64615;SDS011;51027;42.162;24.754;2022-11-15T15:30:46;45.70;;;23.45;;
64615;SDS011;51027;42.162;24.754;2022-11-15T15:33:12;44.58;;;23.73;;
64615;SDS011;51027;42.162;24.754;2022-11-15T15:35:37;49.00;;;26.13;;
64615;SDS011;51027;42.162;24.754;2022-11-15T15:38:03;73.63;;;41.53;;
64615;SDS011;51027;42.162;24.754;2022-11-15T15:40:29;57.30;;;31.27;;
64615;SDS011;51027;42.162;24.754;2022-11-15T15:42:57;55.10;;;30.52;;
64615;SDS011;51027;42.162;24.754;2022-11-15T15:45:22;52.33;;;27.75;;
64615;SDS011;51027;42.162;24.754;2022-11-15T15:47:50;54.67;;;29.30;;
64615;SDS011;51027;42.162;24.754;2022-11-15T15:52:42;51.70;;;29.02;;
64615;SDS011;51027;42.162;24.754;2022-11-15T15:55:07;51.25;;;27.73;;
64615;SDS011;51027;42.162;24.754;2022-11-15T15:57:33;55.28;;;29.75;;
64615;SDS011;51027;42.162;24.754;2022-11-15T15:59:59;56.42;;;28.60;;
64615;SDS011;51027;42.162;24.754;2022-11-15T16:02:24;49.65;;;26.55;;
64615;SDS011;51027;42.162;24.754;2022-11-15T16:04:49;56.92;;;30.63;;
64615;SDS011;51027;42.162;24.754;2022-11-15T16:07:16;61.03;;;28.73;;
64615;SDS011;51027;42.162;24.754;2022-11-15T16:09:46;58.90;;;31.17;;
64615;SDS011;51027;42.162;24.754;2022-11-15T16:12:34;51.15;;;27.35;;
64615;SDS011;51027;42.162;24.754;2022-11-15T16:15:00;63.30;;;32.45;;
64615;SDS011;51027;42.162;24.754;2022-11-15T16:17:28;54.47;;;28.42;;
64615;SDS011;51027;42.162;24.754;2022-11-15T16:19:57;50.25;;;26.63;;
64615;SDS011;51027;42.162;24.754;2022-11-15T16:22:23;58.20;;;30.17;;
64615;SDS011;51027;42.162;24.754;2022-11-15T16:24:48;55.60;;;30.13;;
64615;SDS011;51027;42.162;24.754;2022-11-15T16:27:15;58.92;;;31.20;;
64615;SDS011;51027;42.162;24.754;2022-11-15T16:29:42;65.25;;;31.42;;
64615;SDS011;51027;42.162;24.754;2022-11-15T16:32:07;59.95;;;32.38;;